Ship Status Report: callsign BP3015

sailwx.info

Track history (hours):
 
Tides and Currents Weather Stations Pressure Air Temp Water Temp Dewpoint Dewpoint Depression Visibility Wind Speed Wind Dir Waves Ship Positions

Oceanographic research ship ()

Last reported at 2019-Oct-17 15:00 UTC. Time now 2019-Oct-17 15:07 UTC.
Position N 25°12' E 121°45'.

Length 39 m; draft 2.8 m.

Type: Pleasure craft. MMSI: 416922000.

Date/timePositionNaut miles runAvg speedWind from/ knotsBaromVisibWave heightAir tempDewpointWater temp
2019-Oct-17 15:00N 25°12' E 121°45'3 5.8
2019-Oct-17 14:30N 25°15' E 121°43'1 1.7
2019-Oct-17 13:58N 25°15' E 121°42'1 1.3
2019-Oct-17 13:27N 25°14' E 121°42'1 2.1
2019-Oct-17 12:59N 25°13' E 121°42'1 1.3
2019-Oct-17 12:30N 25°14' E 121°41'0 1.0
2019-Oct-17 12:00N 25°13' E 121°41'1 1.4
2019-Oct-17 11:29N 25°13' E 121°41'0 0.5
2019-Oct-17 10:58N 25°13' E 121°40'1 1.2
2019-Oct-17 10:30N 25°13' E 121°41'1 1.3
2019-Oct-17 09:57N 25°13' E 121°40'0 0.7
2019-Oct-17 09:29N 25°13' E 121°40'0 0.7
2019-Oct-17 09:00N 25°13' E 121°40'0 0.9
2019-Oct-17 08:30N 25°13' E 121°41'1 1.5
2019-Oct-17 08:00N 25°14' E 121°40'1 2.3
2019-Oct-17 07:30N 25°14' E 121°39'1 1.6
2019-Oct-17 06:58N 25°15' E 121°40'3 6.4
2019-Oct-17 06:26N 25°17' E 121°37'1 2.5
2019-Oct-17 06:00N 25°18' E 121°36'0 0.4
2019-Oct-17 05:29N 25°18' E 121°36'1 0.9
2019-Oct-17 04:57N 25°18' E 121°36'1 1.6
2019-Oct-17 04:29N 25°18' E 121°36'1 1.3
2019-Oct-17 04:00N 25°18' E 121°36'1 1.4
2019-Oct-17 03:23N 25°19' E 121°37'1 2.7
2019-Oct-17 02:55N 25°19' E 121°36'2 3.2
2019-Oct-17 02:25N 25°20' E 121°37'3 6.6
2019-Oct-17 02:00N 25°18' E 121°39'510.1
2019-Oct-17 01:31N 25°14' E 121°43'5 9.7
2019-Oct-17 01:00N 25°10' E 121°46'2 3.3
2019-Oct-17 00:30N 25°09' E 121°47'0 0.0
2019-Oct-17 00:00N 25°09' E 121°47'0 0.0
2019-Oct-16 23:30N 25°09' E 121°47'0 0.0
2019-Oct-16 23:00N 25°09' E 121°47'0 0.0
2019-Oct-16 22:30N 25°09' E 121°47'0 0.0
2019-Oct-16 22:00N 25°09' E 121°47'0 0.0
2019-Oct-16 21:30N 25°09' E 121°47'0 0.0
2019-Oct-16 21:00N 25°09' E 121°47'0 0.0
2019-Oct-16 20:30N 25°09' E 121°47'0 0.0
2019-Oct-16 20:00N 25°09' E 121°47'0 0.0
2019-Oct-16 19:30N 25°09' E 121°47'0 0.0
2019-Oct-16 19:00N 25°09' E 121°47'0 0.0
2019-Oct-16 18:30N 25°09' E 121°47'0 0.0
2019-Oct-16 18:00N 25°09' E 121°47'0 0.0
2019-Oct-16 17:30N 25°09' E 121°47'0 0.0
2019-Oct-16 17:00N 25°09' E 121°47'0 0.0
2019-Oct-16 16:30N 25°09' E 121°47'0 0.0
2019-Oct-16 16:00N 25°09' E 121°47'0 0.0
2019-Oct-16 15:30N 25°09' E 121°47'0 0.0
2019-Oct-16 15:00N 25°09' E 121°47'0 0.0
2019-Oct-16 14:30N 25°09' E 121°47'0 0.0
2019-Oct-16 14:00N 25°09' E 121°47'0 0.0
2019-Oct-16 13:30N 25°09' E 121°47'0 0.0
2019-Oct-16 13:00N 25°09' E 121°47'0 0.0
2019-Oct-16 12:30N 25°09' E 121°47'0 0.0
2019-Oct-16 12:00N 25°09' E 121°47'0 0.0
2019-Oct-16 11:30N 25°09' E 121°47'0 0.0
2019-Oct-16 11:00N 25°09' E 121°47'0 0.0
2019-Oct-16 10:30N 25°09' E 121°47'0 0.0
2019-Oct-16 10:00N 25°09' E 121°47'0 0.0
2019-Oct-16 09:30N 25°09' E 121°47'0 0.0
2019-Oct-16 09:00N 25°09' E 121°47'0 0.0
2019-Oct-16 08:30N 25°09' E 121°47'0 0.0
2019-Oct-16 08:00N 25°09' E 121°47'0 0.0
2019-Oct-16 07:30N 25°09' E 121°47'0 0.0
2019-Oct-16 07:00N 25°09' E 121°47'0 0.0
2019-Oct-16 06:30N 25°09' E 121°47'0 0.0
2019-Oct-16 06:00N 25°09' E 121°47'0 0.0
2019-Oct-16 05:30N 25°09' E 121°47'0 0.0
2019-Oct-16 05:00N 25°09' E 121°47'0 0.0
2019-Oct-16 04:30N 25°09' E 121°47'0 0.0
2019-Oct-16 04:00N 25°09' E 121°47'0 0.0
2019-Oct-16 03:30N 25°09' E 121°47'0 0.0
2019-Oct-16 03:00N 25°09' E 121°47'0 0.0
2019-Oct-16 02:30N 25°09' E 121°47'0 0.0
2019-Oct-16 02:00N 25°09' E 121°47'0 0.0
2019-Oct-16 01:30N 25°09' E 121°47'0 0.0
2019-Oct-16 01:00N 25°09' E 121°47'0 0.0
2019-Oct-16 00:30N 25°09' E 121°47'0 0.0
2019-Oct-16 00:00N 25°09' E 121°47'0 0.0
2019-Oct-15 23:30N 25°09' E 121°47'0 0.0
2019-Oct-15 23:00N 25°09' E 121°47'0 0.0
2019-Oct-15 22:30N 25°09' E 121°47'0 0.0
2019-Oct-15 22:00N 25°09' E 121°47'0 0.0
2019-Oct-15 21:30N 25°09' E 121°47'0 0.0
2019-Oct-15 21:00N 25°09' E 121°47'0 0.0
2019-Oct-15 20:30N 25°09' E 121°47'0 0.0
2019-Oct-15 20:00N 25°09' E 121°47'0 0.0
2019-Oct-15 19:30N 25°09' E 121°47'0 0.0
2019-Oct-15 19:00N 25°09' E 121°47'0 0.0
2019-Oct-15 18:30N 25°09' E 121°47'0 0.0
2019-Oct-15 18:00N 25°09' E 121°47'0 0.0
2019-Oct-15 17:30N 25°09' E 121°47'0 0.0
2019-Oct-15 17:00N 25°09' E 121°47'0 0.0
2019-Oct-15 16:27N 25°09' E 121°47'0 0.0
2019-Oct-15 16:00N 25°09' E 121°47'0 0.0
2019-Oct-15 15:30N 25°09' E 121°47'0 0.0
2019-Oct-15 15:00N 25°09' E 121°47'0 0.0
2019-Oct-15 14:30N 25°09' E 121°47'0 0.0
2019-Oct-15 14:00N 25°09' E 121°47'0 0.0
2019-Oct-15 13:30N 25°09' E 121°47'0 0.0
2019-Oct-15 13:00N 25°09' E 121°47'0 0.0
2019-Oct-15 12:30N 25°09' E 121°47'0 0.0
2019-Oct-15 12:00N 25°09' E 121°47'0 0.0
2019-Oct-15 11:30N 25°09' E 121°47'0 0.0
2019-Oct-15 11:00N 25°09' E 121°47'0 0.0
2019-Oct-15 10:30N 25°09' E 121°47'0 0.0
2019-Oct-15 10:00N 25°09' E 121°47'0 0.0
2019-Oct-15 09:30N 25°09' E 121°47'0 0.0
2019-Oct-15 09:00N 25°09' E 121°47'0 0.0
2019-Oct-15 08:30N 25°09' E 121°47'0 0.0
2019-Oct-15 08:00N 25°09' E 121°47'0 0.0
2019-Oct-15 07:30N 25°09' E 121°47'0 0.0
2019-Oct-15 07:00N 25°09' E 121°47'0 0.0
2019-Oct-15 06:30N 25°09' E 121°47'0 0.0
2019-Oct-15 06:00N 25°09' E 121°47'0 0.0
2019-Oct-15 05:30N 25°09' E 121°47'0 0.0
2019-Oct-15 05:00N 25°09' E 121°47'0 0.0
2019-Oct-15 04:30N 25°09' E 121°47'0 0.0
2019-Oct-15 04:00N 25°09' E 121°47'0 0.0
2019-Oct-15 03:30N 25°09' E 121°47'0 0.0
2019-Oct-15 03:00N 25°09' E 121°47'0 0.0
2019-Oct-15 02:30N 25°09' E 121°47'0 0.0
2019-Oct-15 02:00N 25°09' E 121°47'0 0.0
2019-Oct-15 01:30N 25°09' E 121°47'0 0.0
2019-Oct-15 01:00N 25°09' E 121°47'0 0.0
2019-Oct-15 00:30N 25°09' E 121°47'0 0.0
2019-Oct-15 00:00N 25°09' E 121°47'0 0.0
2019-Oct-14 23:30N 25°09' E 121°47'0 0.0
2019-Oct-14 23:00N 25°09' E 121°47'0 0.0
2019-Oct-14 22:30N 25°09' E 121°47'0 0.0
2019-Oct-14 22:00N 25°09' E 121°47'0 0.0
2019-Oct-14 21:30N 25°09' E 121°47'0 0.0
2019-Oct-14 21:00N 25°09' E 121°47'0 0.0
2019-Oct-14 20:30N 25°09' E 121°47'0 0.0
2019-Oct-14 20:00N 25°09' E 121°47'0 0.0
2019-Oct-14 19:30N 25°09' E 121°47'0 0.0
2019-Oct-14 19:00N 25°09' E 121°47'0 0.0
2019-Oct-14 18:30N 25°09' E 121°47'0 0.0
2019-Oct-14 18:00N 25°09' E 121°47'0 0.0
2019-Oct-14 17:30N 25°09' E 121°47'0 0.0
2019-Oct-14 16:59N 25°09' E 121°47'0 0.0
2019-Oct-14 16:30N 25°09' E 121°47'0 0.0
2019-Oct-14 16:00N 25°09' E 121°47'0 0.0
2019-Oct-14 15:30N 25°09' E 121°47'0 0.0
2019-Oct-14 15:00N 25°09' E 121°47'0 0.0
2019-Oct-14 14:30N 25°09' E 121°47'0 0.0
2019-Oct-14 14:00N 25°09' E 121°47'0 0.0
2019-Oct-14 13:30N 25°09' E 121°47'0 0.0
2019-Oct-14 13:00N 25°09' E 121°47'0 0.0
2019-Oct-14 12:30N 25°09' E 121°47'0 0.0
2019-Oct-14 11:59N 25°09' E 121°47'0 0.0
2019-Oct-14 11:30N 25°09' E 121°47'0 0.0
2019-Oct-14 11:00N 25°09' E 121°47'0 0.0
2019-Oct-14 10:30N 25°09' E 121°47'0 0.0
2019-Oct-14 10:00N 25°09' E 121°47'0 0.0
2019-Oct-14 09:30N 25°09' E 121°47'0 0.0
2019-Oct-14 09:00N 25°09' E 121°47'0 0.0
2019-Oct-14 08:30N 25°09' E 121°47'0 0.0
2019-Oct-14 08:00N 25°09' E 121°47'0 0.0
2019-Oct-14 07:30N 25°09' E 121°47'0 0.0
2019-Oct-14 07:00N 25°09' E 121°47'0 0.0
2019-Oct-14 06:30N 25°09' E 121°47'0 0.0
2019-Oct-14 06:00N 25°09' E 121°47'0 0.0
2019-Oct-14 05:30N 25°09' E 121°47'0 0.0
2019-Oct-14 05:00N 25°09' E 121°47'0 0.0
2019-Oct-14 04:30N 25°09' E 121°47'0 0.0
2019-Oct-14 04:00N 25°09' E 121°47'0 0.0
2019-Oct-14 03:30N 25°09' E 121°47'0 0.0
2019-Oct-14 03:00N 25°09' E 121°47'0 0.0
2019-Oct-14 02:30N 25°09' E 121°47'0 0.0
2019-Oct-14 02:00N 25°09' E 121°47'0 0.0
2019-Oct-14 01:30N 25°09' E 121°47'0 0.0
2019-Oct-14 01:00N 25°09' E 121°47'0 0.0
2019-Oct-14 00:30N 25°09' E 121°47'0 0.0
2019-Oct-14 00:00N 25°09' E 121°47'0 0.0
2019-Oct-13 23:30N 25°09' E 121°47'0 0.0
2019-Oct-13 23:00N 25°09' E 121°47'0 0.0
2019-Oct-13 22:30N 25°09' E 121°47'0 0.0
2019-Oct-13 22:00N 25°09' E 121°47'0 0.0
2019-Oct-13 21:30N 25°09' E 121°47'0 0.0
2019-Oct-13 21:00N 25°09' E 121°47'0 0.0
2019-Oct-13 20:30N 25°09' E 121°47'0 0.0
2019-Oct-13 20:00N 25°09' E 121°47'0 0.0
2019-Oct-13 19:30N 25°09' E 121°47'0 0.0
2019-Oct-13 19:00N 25°09' E 121°47'0 0.0
2019-Oct-13 18:30N 25°09' E 121°47'0 0.0
2019-Oct-13 17:56N 25°09' E 121°47'0 0.0
2019-Oct-13 17:30N 25°09' E 121°47'0 0.0
2019-Oct-13 17:00N 25°09' E 121°47'0 0.0
2019-Oct-13 16:30N 25°09' E 121°47'0 0.0
2019-Oct-13 16:00N 25°09' E 121°47'0 0.0
2019-Oct-13 15:30N 25°09' E 121°47'0 0.0
2019-Oct-13 15:00N 25°09' E 121°47'0 0.0
2019-Oct-13 14:30N 25°09' E 121°47'0 0.0
2019-Oct-13 14:00N 25°09' E 121°47'0 0.0
2019-Oct-13 13:30N 25°09' E 121°47'0 0.0
2019-Oct-13 13:00N 25°09' E 121°47'0 0.0
2019-Oct-13 12:30N 25°09' E 121°47'0 0.0
2019-Oct-13 12:00N 25°09' E 121°47'0 0.0
2019-Oct-13 11:30N 25°09' E 121°47'0 0.0
2019-Oct-13 11:00N 25°09' E 121°47'0 0.0
2019-Oct-13 10:30N 25°09' E 121°47'0 0.0
2019-Oct-13 10:00N 25°09' E 121°47'0 0.0
2019-Oct-13 09:30N 25°09' E 121°47'0 0.0
2019-Oct-13 09:00N 25°09' E 121°47'0 0.0
2019-Oct-13 08:30N 25°09' E 121°47'0 0.0
2019-Oct-13 08:00N 25°09' E 121°47'0 0.0
2019-Oct-13 07:30N 25°09' E 121°47'0 0.0
2019-Oct-13 07:00N 25°09' E 121°47'0 0.0
2019-Oct-13 06:30N 25°09' E 121°47'0 0.0
2019-Oct-13 06:00N 25°09' E 121°47'0 0.0
2019-Oct-13 05:30N 25°09' E 121°47'0 0.0
2019-Oct-13 05:00N 25°09' E 121°47'0 0.0
2019-Oct-13 04:30N 25°09' E 121°47'0 0.0
2019-Oct-13 04:00N 25°09' E 121°47'0 0.0
2019-Oct-13 03:30N 25°09' E 121°47'0 0.0
2019-Oct-13 03:00N 25°09' E 121°47'0 0.0
2019-Oct-13 02:30N 25°09' E 121°47'0 0.0
2019-Oct-13 02:00N 25°09' E 121°47'0 0.0
2019-Oct-13 01:30N 25°09' E 121°47'0 0.0
2019-Oct-13 01:00N 25°09' E 121°47'0 0.0
2019-Oct-13 00:30N 25°09' E 121°47'0 0.0
2019-Oct-13 00:00N 25°09' E 121°47'0 0.0
2019-Oct-12 23:30N 25°09' E 121°47'0 0.0
2019-Oct-12 23:00N 25°09' E 121°47'0 0.0
2019-Oct-12 22:30N 25°09' E 121°47'0 0.0
2019-Oct-12 22:00N 25°09' E 121°47'0 0.0
2019-Oct-12 21:30N 25°09' E 121°47'0 0.0
2019-Oct-12 21:00N 25°09' E 121°47'0 0.0
2019-Oct-12 20:30N 25°09' E 121°47'0 0.0
2019-Oct-12 20:00N 25°09' E 121°47'0 0.0
2019-Oct-12 19:30N 25°09' E 121°47'0 0.0
2019-Oct-12 19:00N 25°09' E 121°47'0 0.0
2019-Oct-12 18:30N 25°09' E 121°47'0 0.0
2019-Oct-12 18:00N 25°09' E 121°47'0 0.0
2019-Oct-12 17:30N 25°09' E 121°47'0 0.0
2019-Oct-12 17:00N 25°09' E 121°47'0 0.0
2019-Oct-12 16:30N 25°09' E 121°47'0 0.0
2019-Oct-12 16:00N 25°09' E 121°47'0 0.0
2019-Oct-12 15:30N 25°09' E 121°47'0 0.0
2019-Oct-12 15:00N 25°09' E 121°47'0 0.0
2019-Oct-12 14:30N 25°09' E 121°47'0 0.0
2019-Oct-12 14:00N 25°09' E 121°47'0 0.0
2019-Oct-12 13:30N 25°09' E 121°47'0 0.0
2019-Oct-12 12:59N 25°09' E 121°47'0 0.0
2019-Oct-12 12:30N 25°09' E 121°47'0 0.0
2019-Oct-12 12:00N 25°09' E 121°47'0 0.0
2019-Oct-12 11:30N 25°09' E 121°47'0 0.0
2019-Oct-12 11:00N 25°09' E 121°47'0 0.0
2019-Oct-12 10:30N 25°09' E 121°47'0 0.0
2019-Oct-12 10:00N 25°09' E 121°47'0 0.0
2019-Oct-12 09:30N 25°09' E 121°47'0 0.0
2019-Oct-12 09:00N 25°09' E 121°47'0 0.0
2019-Oct-12 08:30N 25°09' E 121°47'0 0.0
2019-Oct-12 08:00N 25°09' E 121°47'0 0.0
2019-Oct-12 07:30N 25°09' E 121°47'0 0.0
2019-Oct-12 07:00N 25°09' E 121°47'0 0.0
2019-Oct-12 06:30N 25°09' E 121°47'0 0.0
2019-Oct-12 06:00N 25°09' E 121°47'0 0.0
2019-Oct-12 05:30N 25°09' E 121°47'0 0.0
2019-Oct-12 05:00N 25°09' E 121°47'0 0.0
2019-Oct-12 04:30N 25°09' E 121°47'0 0.0
2019-Oct-12 04:00N 25°09' E 121°47'0 0.0
2019-Oct-12 03:30N 25°09' E 121°47'0 0.0
2019-Oct-12 03:00N 25°09' E 121°47'0 0.0
2019-Oct-12 02:30N 25°09' E 121°47'0 0.0
2019-Oct-12 02:00N 25°09' E 121°47'0 0.0
2019-Oct-12 01:30N 25°09' E 121°47'0 0.0
2019-Oct-12 01:00N 25°09' E 121°47'0 0.0
2019-Oct-12 00:30N 25°09' E 121°47'0 0.0
2019-Oct-12 00:00N 25°09' E 121°47'0 0.0
2019-Oct-11 23:30N 25°09' E 121°47'0 0.0
2019-Oct-11 23:00N 25°09' E 121°47'0 0.0
2019-Oct-11 22:30N 25°09' E 121°47'0 0.0
2019-Oct-11 22:00N 25°09' E 121°47'0 0.0
2019-Oct-11 21:30N 25°09' E 121°47'0 0.0
2019-Oct-11 21:00N 25°09' E 121°47'0 0.0
2019-Oct-11 20:30N 25°09' E 121°47'0 0.0
2019-Oct-11 20:00N 25°09' E 121°47'0 0.0
2019-Oct-11 19:30N 25°09' E 121°47'0 0.0
2019-Oct-11 19:00N 25°09' E 121°47'0 0.0
2019-Oct-11 18:30N 25°09' E 121°47'0 0.0
2019-Oct-11 18:00N 25°09' E 121°47'0 0.0
2019-Oct-11 17:30N 25°09' E 121°47'0 0.0
2019-Oct-11 17:00N 25°09' E 121°47'0 0.0
2019-Oct-11 16:30N 25°09' E 121°47'0 0.0
2019-Oct-11 16:00N 25°09' E 121°47'0 0.0
2019-Oct-11 15:30N 25°09' E 121°47'0 0.0
2019-Oct-11 15:00N 25°09' E 121°47'0 0.0
2019-Oct-11 14:30N 25°09' E 121°47'0 0.0
2019-Oct-11 14:00N 25°09' E 121°47'0 0.0
2019-Oct-11 13:30N 25°09' E 121°47'0 0.0
2019-Oct-11 13:00N 25°09' E 121°47'0 0.0
2019-Oct-11 12:30N 25°09' E 121°47'0 0.0
2019-Oct-11 12:00N 25°09' E 121°47'0 0.0
2019-Oct-11 11:30N 25°09' E 121°47'0 0.0
2019-Oct-11 11:00N 25°09' E 121°47'0 0.0
2019-Oct-11 10:30N 25°09' E 121°47'0 0.0
2019-Oct-11 10:00N 25°09' E 121°47'0 0.0
2019-Oct-11 09:30N 25°09' E 121°47'0 0.0
2019-Oct-11 09:00N 25°09' E 121°47'0 0.0
2019-Oct-11 08:30N 25°09' E 121°47'0 0.0
2019-Oct-11 08:00N 25°09' E 121°47'0 0.0
2019-Oct-11 07:27N 25°09' E 121°47'0 0.0
2019-Oct-11 06:59N 25°09' E 121°47'0 0.0
2019-Oct-11 06:29N 25°09' E 121°47'0 0.0
2019-Oct-11 05:56N 25°09' E 121°47'0 0.0
2019-Oct-11 05:29N 25°09' E 121°47'0 0.0
2019-Oct-11 05:00N 25°09' E 121°47'0 0.0
2019-Oct-11 04:28N 25°09' E 121°47'0 0.0
2019-Oct-11 04:00N 25°09' E 121°47'0 0.0
2019-Oct-11 03:29N 25°09' E 121°47'0 0.0
2019-Oct-11 02:59N 25°09' E 121°47'0 0.0
2019-Oct-11 02:28N 25°09' E 121°47'0 0.0
2019-Oct-11 01:58N 25°09' E 121°47'0 0.0
2019-Oct-11 01:30N 25°09' E 121°47'0 0.0
2019-Oct-11 00:58N 25°09' E 121°47'0 0.0
2019-Oct-11 00:27N 25°09' E 121°47'0 0.0
2019-Oct-10 23:59N 25°09' E 121°47'0 0.0
2019-Oct-10 23:30N 25°09' E 121°47'0 0.0
2019-Oct-10 22:57N 25°09' E 121°47'0 0.0
2019-Oct-10 22:30N 25°09' E 121°47'0 0.0
2019-Oct-10 21:57N 25°09' E 121°47'0 0.0
2019-Oct-10 21:29N 25°09' E 121°47'0 0.0
2019-Oct-10 20:58N 25°09' E 121°47'0 0.0
2019-Oct-10 20:31N 25°09' E 121°47'0 0.0
2019-Oct-10 19:58N 25°09' E 121°47'0 0.0
2019-Oct-10 19:25N 25°09' E 121°47'0 0.0
2019-Oct-10 18:58N 25°09' E 121°47'0 0.0
2019-Oct-10 18:26N 25°09' E 121°47'0 0.0
2019-Oct-10 17:59N 25°09' E 121°47'0 0.0
2019-Oct-10 17:27N 25°09' E 121°47'0 0.0
2019-Oct-10 17:00N 25°09' E 121°47'0 0.0
2019-Oct-10 16:30N 25°09' E 121°47'0 0.0
2019-Oct-10 15:57N 25°09' E 121°47'0 0.0
2019-Oct-10 15:26N 25°09' E 121°47'0 0.0
2019-Oct-10 14:58N 25°09' E 121°47'0 0.0
2019-Oct-10 14:29N 25°09' E 121°47'0 0.0
2019-Oct-10 13:56N 25°09' E 121°47'0 0.0
2019-Oct-10 13:30N 25°09' E 121°47'0 0.0
2019-Oct-10 13:00N 25°09' E 121°47'0 0.0
2019-Oct-10 12:25N 25°09' E 121°47'0 0.0
2019-Oct-10 12:00N 25°09' E 121°47'0 0.0
2019-Oct-10 11:31N 25°09' E 121°47'0 0.0
2019-Oct-10 10:59N 25°09' E 121°47'0 0.0
2019-Oct-10 10:30N 25°09' E 121°47'0 0.0
2019-Oct-10 10:00N 25°09' E 121°47'0 0.0
2019-Oct-10 09:30N 25°09' E 121°47'0 0.0
2019-Oct-10 09:00N 25°09' E 121°47'0 0.0
2019-Oct-10 08:30N 25°09' E 121°47'0 0.0
2019-Oct-10 08:00N 25°09' E 121°47'0 0.0
2019-Oct-10 07:30N 25°09' E 121°47'0 0.0
2019-Oct-10 07:00N 25°09' E 121°47'0 0.0
2019-Oct-10 06:30N 25°09' E 121°47'0 0.0
2019-Oct-10 06:00N 25°09' E 121°47'0 0.0
2019-Oct-10 05:29N 25°09' E 121°47'0 0.0
2019-Oct-10 05:00N 25°09' E 121°47'0 0.0
2019-Oct-10 04:30N 25°09' E 121°47'0 0.0
2019-Oct-10 04:00N 25°09' E 121°47'0 0.0
2019-Oct-10 03:30N 25°09' E 121°47'0 0.0
2019-Oct-10 03:00N 25°09' E 121°47'0 0.0
2019-Oct-10 02:30N 25°09' E 121°47'0 0.0
2019-Oct-10 02:00N 25°09' E 121°47'0 0.0
2019-Oct-10 01:30N 25°09' E 121°47'0 0.0
2019-Oct-10 01:00N 25°09' E 121°47'0 0.0
2019-Oct-10 00:30N 25°09' E 121°47'0 0.0
2019-Oct-10 00:00N 25°09' E 121°47'0 0.0
2019-Oct-09 23:30N 25°09' E 121°47'0 0.0
2019-Oct-09 23:00N 25°09' E 121°47'0 0.0
2019-Oct-09 22:30N 25°09' E 121°47'0 0.0
2019-Oct-09 22:00N 25°09' E 121°47'0 0.0
2019-Oct-09 21:30N 25°09' E 121°47'0 0.0
2019-Oct-09 21:00N 25°09' E 121°47'0 0.0
2019-Oct-09 20:30N 25°09' E 121°47'0 0.0
2019-Oct-09 20:00N 25°09' E 121°47'0 0.0
2019-Oct-09 19:30N 25°09' E 121°47'0 0.0
2019-Oct-09 19:00N 25°09' E 121°47'0 0.0
2019-Oct-09 18:30N 25°09' E 121°47'0 0.0
2019-Oct-09 18:00N 25°09' E 121°47'0 0.0
2019-Oct-09 17:30N 25°09' E 121°47'0 0.0
2019-Oct-09 17:00N 25°09' E 121°47'0 0.0
2019-Oct-09 16:30N 25°09' E 121°47'0 0.0
2019-Oct-09 16:00N 25°09' E 121°47'0 0.0
2019-Oct-09 15:30N 25°09' E 121°47'0 0.0
2019-Oct-09 15:00N 25°09' E 121°47'0 0.0
2019-Oct-09 14:30N 25°09' E 121°47'0 0.0
2019-Oct-09 14:00N 25°09' E 121°47'0 0.0
2019-Oct-09 13:30N 25°09' E 121°47'0 0.0
2019-Oct-09 13:00N 25°09' E 121°47'0 0.0
2019-Oct-09 12:30N 25°09' E 121°47'0 0.0
2019-Oct-09 12:00N 25°09' E 121°47'0 0.0
2019-Oct-09 11:30N 25°09' E 121°47'0 0.0
2019-Oct-09 11:00N 25°09' E 121°47'0 0.0
2019-Oct-09 10:30N 25°09' E 121°47'0 0.0
2019-Oct-09 10:00N 25°09' E 121°47'0 0.0
2019-Oct-09 09:30N 25°09' E 121°47'0 0.0
2019-Oct-09 09:00N 25°09' E 121°47'0 0.0
2019-Oct-09 08:30N 25°09' E 121°47'0 0.0
2019-Oct-09 08:00N 25°09' E 121°47'0 0.0
2019-Oct-09 07:30N 25°09' E 121°47'0 0.0
2019-Oct-09 07:00N 25°09' E 121°47'0 0.0
2019-Oct-09 06:30N 25°09' E 121°47'0 0.0
2019-Oct-09 06:00N 25°09' E 121°47'0 0.0
2019-Oct-09 05:30N 25°09' E 121°47'0 0.0
2019-Oct-09 05:00N 25°09' E 121°47'0 0.0
2019-Oct-09 04:30N 25°09' E 121°47'0 0.0
2019-Oct-09 04:00N 25°09' E 121°47'0 0.0
2019-Oct-09 03:30N 25°09' E 121°47'0 0.0
2019-Oct-09 03:00N 25°09' E 121°47'0 0.0
2019-Oct-09 02:30N 25°09' E 121°47'0 0.0
2019-Oct-09 02:00N 25°09' E 121°47'0 0.0
2019-Oct-09 01:30N 25°09' E 121°47'0 0.0
2019-Oct-09 01:00N 25°09' E 121°47'0 0.0
2019-Oct-09 00:30N 25°09' E 121°47'0 0.0
2019-Oct-09 00:00N 25°09' E 121°47'0 0.0
2019-Oct-08 23:30N 25°09' E 121°47'0 0.0
2019-Oct-08 23:00N 25°09' E 121°47'0 0.0
2019-Oct-08 22:30N 25°09' E 121°47'0 0.0
2019-Oct-08 22:00N 25°09' E 121°47'0 0.0
2019-Oct-08 21:30N 25°09' E 121°47'0 0.0
2019-Oct-08 21:00N 25°09' E 121°47'0 0.0
2019-Oct-08 20:30N 25°09' E 121°47'0 0.0
2019-Oct-08 20:00N 25°09' E 121°47'0 0.0
2019-Oct-08 19:30N 25°09' E 121°47'0 0.0
2019-Oct-08 18:58N 25°09' E 121°47'0 0.0
2019-Oct-08 18:30N 25°09' E 121°47'0 0.0
2019-Oct-08 18:00N 25°09' E 121°47'0 0.0
2019-Oct-08 17:30N 25°09' E 121°47'0 0.0
2019-Oct-08 16:57N 25°09' E 121°47'0 0.0
2019-Oct-08 16:30N 25°09' E 121°47'0 0.0
2019-Oct-08 16:00N 25°09' E 121°47'0 0.0
2019-Oct-08 15:31N 25°09' E 121°47'0 0.0
2019-Oct-08 15:00N 25°09' E 121°47'0 0.0
2019-Oct-08 14:30N 25°09' E 121°47'0 0.0
2019-Oct-08 14:00N 25°09' E 121°47'0 0.0
2019-Oct-08 13:30N 25°09' E 121°47'0 0.0
2019-Oct-08 13:00N 25°09' E 121°47'0 0.0
2019-Oct-08 12:30N 25°09' E 121°47'0 0.0
2019-Oct-08 12:00N 25°09' E 121°47'0 0.0
2019-Oct-08 11:30N 25°09' E 121°47'0 0.0
2019-Oct-08 11:00N 25°09' E 121°47'0 0.0
2019-Oct-08 10:30N 25°09' E 121°47'1 2.8
2019-Oct-08 10:00N 25°10' E 121°47'5 9.2
2019-Oct-08 09:30N 25°14' E 121°43'5 8.5
2019-Oct-08 08:57N 25°17' E 121°39'4 7.4
2019-Oct-08 08:26N 25°19' E 121°36'5 6.7
2019-Oct-08 07:41N 25°20' E 121°30'3 6.8
2019-Oct-08 07:12N 25°19' E 121°27'1 7.6
2019-Oct-08 07:00N 25°18' E 121°26'3 6.2
2019-Oct-08 06:30N 25°16' E 121°24'2 5.0
2019-Oct-08 06:00N 25°13' E 121°23'1 1.4
2019-Oct-08 05:30N 25°13' E 121°23'1 1.1
2019-Oct-08 05:00N 25°13' E 121°23'1 1.3
2019-Oct-08 04:29N 25°13' E 121°22'1 1.3
2019-Oct-08 04:01N 25°13' E 121°22'1 1.1
2019-Oct-08 03:30N 25°13' E 121°23'1 1.3
2019-Oct-08 03:00N 25°12' E 121°23'1 2.1
2019-Oct-08 02:30N 25°11' E 121°23'1 1.6
2019-Oct-08 02:00N 25°12' E 121°22'1 2.6
2019-Oct-08 01:30N 25°13' E 121°21'1 1.3
2019-Oct-08 01:01N 25°12' E 121°21'1 1.8
2019-Oct-08 00:30N 25°11' E 121°22'1 1.7
2019-Oct-08 00:00N 25°11' E 121°22'1 1.3
2019-Oct-07 23:30N 25°10' E 121°22'2 4.3
2019-Oct-07 23:00N 25°09' E 121°20'0 0.8
2019-Oct-07 22:30N 25°09' E 121°20'1 1.6
2019-Oct-07 21:49N 25°09' E 121°21'1 1.1
2019-Oct-07 21:01N 25°10' E 121°21'3 1.4
2019-Oct-07 18:54N 25°13' E 121°22'1 1.3
2019-Oct-07 18:00N 25°13' E 121°24'4 8.9
2019-Oct-07 17:30N 25°17' E 121°24'4 8.8
2019-Oct-07 17:00N 25°20' E 121°27'5 9.0
2019-Oct-07 16:24N 25°20' E 121°33'4 8.4
2019-Oct-07 15:57N 25°19' E 121°37'4 9.1
2019-Oct-07 15:29N 25°16' E 121°41'4 8.5
2019-Oct-07 15:00N 25°13' E 121°44'  
Track history (hours):
 
Tides and Currents Weather Stations Pressure Air Temp Water Temp Dewpoint Dewpoint Depression Visibility Wind Speed Wind Dir Waves Ship Positions

Oceanographic research ship ()

Last reported at 2019-Oct-17 15:00 UTC. Time now 2019-Oct-17 15:07 UTC.
Position N 25°12' E 121°45'.

Length 39 m; draft 2.8 m.

Type: Pleasure craft. MMSI: 416922000.

Date/timePositionNaut miles runAvg speedWind from/ knotsBaromVisibWave heightAir tempDewpointWater temp
2019-Oct-17 15:00N 25°12' E 121°45'3 5.8
2019-Oct-17 14:30N 25°15' E 121°43'1 1.7
2019-Oct-17 13:58N 25°15' E 121°42'1 1.3
2019-Oct-17 13:27N 25°14' E 121°42'1 2.1
2019-Oct-17 12:59N 25°13' E 121°42'1 1.3
2019-Oct-17 12:30N 25°14' E 121°41'0 1.0
2019-Oct-17 12:00N 25°13' E 121°41'1 1.4
2019-Oct-17 11:29N 25°13' E 121°41'0 0.5
2019-Oct-17 10:58N 25°13' E 121°40'1 1.2
2019-Oct-17 10:30N 25°13' E 121°41'1 1.3
2019-Oct-17 09:57N 25°13' E 121°40'0 0.7
2019-Oct-17 09:29N 25°13' E 121°40'0 0.7
2019-Oct-17 09:00N 25°13' E 121°40'0 0.9
2019-Oct-17 08:30N 25°13' E 121°41'1 1.5
2019-Oct-17 08:00N 25°14' E 121°40'1 2.3
2019-Oct-17 07:30N 25°14' E 121°39'1 1.6
2019-Oct-17 06:58N 25°15' E 121°40'3 6.4
2019-Oct-17 06:26N 25°17' E 121°37'1 2.5
2019-Oct-17 06:00N 25°18' E 121°36'0 0.4
2019-Oct-17 05:29N 25°18' E 121°36'1 0.9
2019-Oct-17 04:57N 25°18' E 121°36'1 1.6
2019-Oct-17 04:29N 25°18' E 121°36'1 1.3
2019-Oct-17 04:00N 25°18' E 121°36'1 1.4
2019-Oct-17 03:23N 25°19' E 121°37'1 2.7
2019-Oct-17 02:55N 25°19' E 121°36'2 3.2
2019-Oct-17 02:25N 25°20' E 121°37'3 6.6
2019-Oct-17 02:00N 25°18' E 121°39'510.1
2019-Oct-17 01:31N 25°14' E 121°43'5 9.7
2019-Oct-17 01:00N 25°10' E 121°46'2 3.3
2019-Oct-17 00:30N 25°09' E 121°47'0 0.0
2019-Oct-17 00:00N 25°09' E 121°47'0 0.0
2019-Oct-16 23:30N 25°09' E 121°47'0 0.0
2019-Oct-16 23:00N 25°09' E 121°47'0 0.0
2019-Oct-16 22:30N 25°09' E 121°47'0 0.0
2019-Oct-16 22:00N 25°09' E 121°47'0 0.0
2019-Oct-16 21:30N 25°09' E 121°47'0 0.0
2019-Oct-16 21:00N 25°09' E 121°47'0 0.0
2019-Oct-16 20:30N 25°09' E 121°47'0 0.0
2019-Oct-16 20:00N 25°09' E 121°47'0 0.0
2019-Oct-16 19:30N 25°09' E 121°47'0 0.0
2019-Oct-16 19:00N 25°09' E 121°47'0 0.0
2019-Oct-16 18:30N 25°09' E 121°47'0 0.0
2019-Oct-16 18:00N 25°09' E 121°47'0 0.0
2019-Oct-16 17:30N 25°09' E 121°47'0 0.0
2019-Oct-16 17:00N 25°09' E 121°47'0 0.0
2019-Oct-16 16:30N 25°09' E 121°47'0 0.0
2019-Oct-16 16:00N 25°09' E 121°47'0 0.0
2019-Oct-16 15:30N 25°09' E 121°47'0 0.0
2019-Oct-16 15:00N 25°09' E 121°47'0 0.0
2019-Oct-16 14:30N 25°09' E 121°47'0 0.0
2019-Oct-16 14:00N 25°09' E 121°47'0 0.0
2019-Oct-16 13:30N 25°09' E 121°47'0 0.0
2019-Oct-16 13:00N 25°09' E 121°47'0 0.0
2019-Oct-16 12:30N 25°09' E 121°47'0 0.0
2019-Oct-16 12:00N 25°09' E 121°47'0 0.0
2019-Oct-16 11:30N 25°09' E 121°47'0 0.0
2019-Oct-16 11:00N 25°09' E 121°47'0 0.0
2019-Oct-16 10:30N 25°09' E 121°47'0 0.0
2019-Oct-16 10:00N 25°09' E 121°47'0 0.0
2019-Oct-16 09:30N 25°09' E 121°47'0 0.0
2019-Oct-16 09:00N 25°09' E 121°47'0 0.0
2019-Oct-16 08:30N 25°09' E 121°47'0 0.0
2019-Oct-16 08:00N 25°09' E 121°47'0 0.0
2019-Oct-16 07:30N 25°09' E 121°47'0 0.0
2019-Oct-16 07:00N 25°09' E 121°47'0 0.0
2019-Oct-16 06:30N 25°09' E 121°47'0 0.0
2019-Oct-16 06:00N 25°09' E 121°47'0 0.0
2019-Oct-16 05:30N 25°09' E 121°47'0 0.0
2019-Oct-16 05:00N 25°09' E 121°47'0 0.0
2019-Oct-16 04:30N 25°09' E 121°47'0 0.0
2019-Oct-16 04:00N 25°09' E 121°47'0 0.0
2019-Oct-16 03:30N 25°09' E 121°47'0 0.0
2019-Oct-16 03:00N 25°09' E 121°47'0 0.0
2019-Oct-16 02:30N 25°09' E 121°47'0 0.0
2019-Oct-16 02:00N 25°09' E 121°47'0 0.0
2019-Oct-16 01:30N 25°09' E 121°47'0 0.0
2019-Oct-16 01:00N 25°09' E 121°47'0 0.0
2019-Oct-16 00:30N 25°09' E 121°47'0 0.0
2019-Oct-16 00:00N 25°09' E 121°47'0 0.0
2019-Oct-15 23:30N 25°09' E 121°47'0 0.0
2019-Oct-15 23:00N 25°09' E 121°47'0 0.0
2019-Oct-15 22:30N 25°09' E 121°47'0 0.0
2019-Oct-15 22:00N 25°09' E 121°47'0 0.0
2019-Oct-15 21:30N 25°09' E 121°47'0 0.0
2019-Oct-15 21:00N 25°09' E 121°47'0 0.0
2019-Oct-15 20:30N 25°09' E 121°47'0 0.0
2019-Oct-15 20:00N 25°09' E 121°47'0 0.0
2019-Oct-15 19:30N 25°09' E 121°47'0 0.0
2019-Oct-15 19:00N 25°09' E 121°47'0 0.0
2019-Oct-15 18:30N 25°09' E 121°47'0 0.0
2019-Oct-15 18:00N 25°09' E 121°47'0 0.0
2019-Oct-15 17:30N 25°09' E 121°47'0 0.0
2019-Oct-15 17:00N 25°09' E 121°47'0 0.0
2019-Oct-15 16:27N 25°09' E 121°47'0 0.0
2019-Oct-15 16:00N 25°09' E 121°47'0 0.0
2019-Oct-15 15:30N 25°09' E 121°47'0 0.0
2019-Oct-15 15:00N 25°09' E 121°47'0 0.0
2019-Oct-15 14:30N 25°09' E 121°47'0 0.0
2019-Oct-15 14:00N 25°09' E 121°47'0 0.0
2019-Oct-15 13:30N 25°09' E 121°47'0 0.0
2019-Oct-15 13:00N 25°09' E 121°47'0 0.0
2019-Oct-15 12:30N 25°09' E 121°47'0 0.0
2019-Oct-15 12:00N 25°09' E 121°47'0 0.0
2019-Oct-15 11:30N 25°09' E 121°47'0 0.0
2019-Oct-15 11:00N 25°09' E 121°47'0 0.0
2019-Oct-15 10:30N 25°09' E 121°47'0 0.0
2019-Oct-15 10:00N 25°09' E 121°47'0 0.0
2019-Oct-15 09:30N 25°09' E 121°47'0 0.0
2019-Oct-15 09:00N 25°09' E 121°47'0 0.0
2019-Oct-15 08:30N 25°09' E 121°47'0 0.0
2019-Oct-15 08:00N 25°09' E 121°47'0 0.0
2019-Oct-15 07:30N 25°09' E 121°47'0 0.0
2019-Oct-15 07:00N 25°09' E 121°47'0 0.0
2019-Oct-15 06:30N 25°09' E 121°47'0 0.0
2019-Oct-15 06:00N 25°09' E 121°47'0 0.0
2019-Oct-15 05:30N 25°09' E 121°47'0 0.0
2019-Oct-15 05:00N 25°09' E 121°47'0 0.0
2019-Oct-15 04:30N 25°09' E 121°47'0 0.0
2019-Oct-15 04:00N 25°09' E 121°47'0 0.0
2019-Oct-15 03:30N 25°09' E 121°47'0 0.0
2019-Oct-15 03:00N 25°09' E 121°47'0 0.0
2019-Oct-15 02:30N 25°09' E 121°47'0 0.0
2019-Oct-15 02:00N 25°09' E 121°47'0 0.0
2019-Oct-15 01:30N 25°09' E 121°47'0 0.0
2019-Oct-15 01:00N 25°09' E 121°47'0 0.0
2019-Oct-15 00:30N 25°09' E 121°47'0 0.0
2019-Oct-15 00:00N 25°09' E 121°47'0 0.0
2019-Oct-14 23:30N 25°09' E 121°47'0 0.0
2019-Oct-14 23:00N 25°09' E 121°47'0 0.0
2019-Oct-14 22:30N 25°09' E 121°47'0 0.0
2019-Oct-14 22:00N 25°09' E 121°47'0 0.0
2019-Oct-14 21:30N 25°09' E 121°47'0 0.0
2019-Oct-14 21:00N 25°09' E 121°47'0 0.0
2019-Oct-14 20:30N 25°09' E 121°47'0 0.0
2019-Oct-14 20:00N 25°09' E 121°47'0 0.0
2019-Oct-14 19:30N 25°09' E 121°47'0 0.0
2019-Oct-14 19:00N 25°09' E 121°47'0 0.0
2019-Oct-14 18:30N 25°09' E 121°47'0 0.0
2019-Oct-14 18:00N 25°09' E 121°47'0 0.0
2019-Oct-14 17:30N 25°09' E 121°47'0 0.0
2019-Oct-14 16:59N 25°09' E 121°47'0 0.0
2019-Oct-14 16:30N 25°09' E 121°47'0 0.0
2019-Oct-14 16:00N 25°09' E 121°47'0 0.0
2019-Oct-14 15:30N 25°09' E 121°47'0 0.0
2019-Oct-14 15:00N 25°09' E 121°47'0 0.0
2019-Oct-14 14:30N 25°09' E 121°47'0 0.0
2019-Oct-14 14:00N 25°09' E 121°47'0 0.0
2019-Oct-14 13:30N 25°09' E 121°47'0 0.0
2019-Oct-14 13:00N 25°09' E 121°47'0 0.0
2019-Oct-14 12:30N 25°09' E 121°47'0 0.0
2019-Oct-14 11:59N 25°09' E 121°47'0 0.0
2019-Oct-14 11:30N 25°09' E 121°47'0 0.0
2019-Oct-14 11:00N 25°09' E 121°47'0 0.0
2019-Oct-14 10:30N 25°09' E 121°47'0 0.0
2019-Oct-14 10:00N 25°09' E 121°47'0 0.0
2019-Oct-14 09:30N 25°09' E 121°47'0 0.0
2019-Oct-14 09:00N 25°09' E 121°47'0 0.0
2019-Oct-14 08:30N 25°09' E 121°47'0 0.0
2019-Oct-14 08:00N 25°09' E 121°47'0 0.0
2019-Oct-14 07:30N 25°09' E 121°47'0 0.0
2019-Oct-14 07:00N 25°09' E 121°47'0 0.0
2019-Oct-14 06:30N 25°09' E 121°47'0 0.0
2019-Oct-14 06:00N 25°09' E 121°47'0 0.0
2019-Oct-14 05:30N 25°09' E 121°47'0 0.0
2019-Oct-14 05:00N 25°09' E 121°47'0 0.0
2019-Oct-14 04:30N 25°09' E 121°47'0 0.0
2019-Oct-14 04:00N 25°09' E 121°47'0 0.0
2019-Oct-14 03:30N 25°09' E 121°47'0 0.0
2019-Oct-14 03:00N 25°09' E 121°47'0 0.0
2019-Oct-14 02:30N 25°09' E 121°47'0 0.0
2019-Oct-14 02:00N 25°09' E 121°47'0 0.0
2019-Oct-14 01:30N 25°09' E 121°47'0 0.0
2019-Oct-14 01:00N 25°09' E 121°47'0 0.0
2019-Oct-14 00:30N 25°09' E 121°47'0 0.0
2019-Oct-14 00:00N 25°09' E 121°47'0 0.0
2019-Oct-13 23:30N 25°09' E 121°47'0 0.0
2019-Oct-13 23:00N 25°09' E 121°47'0 0.0
2019-Oct-13 22:30N 25°09' E 121°47'0 0.0
2019-Oct-13 22:00N 25°09' E 121°47'0 0.0
2019-Oct-13 21:30N 25°09' E 121°47'0 0.0
2019-Oct-13 21:00N 25°09' E 121°47'0 0.0
2019-Oct-13 20:30N 25°09' E 121°47'0 0.0
2019-Oct-13 20:00N 25°09' E 121°47'0 0.0
2019-Oct-13 19:30N 25°09' E 121°47'0 0.0
2019-Oct-13 19:00N 25°09' E 121°47'0 0.0
2019-Oct-13 18:30N 25°09' E 121°47'0 0.0
2019-Oct-13 17:56N 25°09' E 121°47'0 0.0
2019-Oct-13 17:30N 25°09' E 121°47'0 0.0
2019-Oct-13 17:00N 25°09' E 121°47'0 0.0
2019-Oct-13 16:30N 25°09' E 121°47'0 0.0
2019-Oct-13 16:00N 25°09' E 121°47'0 0.0
2019-Oct-13 15:30N 25°09' E 121°47'0 0.0
2019-Oct-13 15:00N 25°09' E 121°47'0 0.0
2019-Oct-13 14:30N 25°09' E 121°47'0 0.0
2019-Oct-13 14:00N 25°09' E 121°47'0 0.0
2019-Oct-13 13:30N 25°09' E 121°47'0 0.0
2019-Oct-13 13:00N 25°09' E 121°47'0 0.0
2019-Oct-13 12:30N 25°09' E 121°47'0 0.0
2019-Oct-13 12:00N 25°09' E 121°47'0 0.0
2019-Oct-13 11:30N 25°09' E 121°47'0 0.0
2019-Oct-13 11:00N 25°09' E 121°47'0 0.0
2019-Oct-13 10:30N 25°09' E 121°47'0 0.0
2019-Oct-13 10:00N 25°09' E 121°47'0 0.0
2019-Oct-13 09:30N 25°09' E 121°47'0 0.0
2019-Oct-13 09:00N 25°09' E 121°47'0 0.0
2019-Oct-13 08:30N 25°09' E 121°47'0 0.0
2019-Oct-13 08:00N 25°09' E 121°47'0 0.0
2019-Oct-13 07:30N 25°09' E 121°47'0 0.0
2019-Oct-13 07:00N 25°09' E 121°47'0 0.0
2019-Oct-13 06:30N 25°09' E 121°47'0 0.0
2019-Oct-13 06:00N 25°09' E 121°47'0 0.0
2019-Oct-13 05:30N 25°09' E 121°47'0 0.0
2019-Oct-13 05:00N 25°09' E 121°47'0 0.0
2019-Oct-13 04:30N 25°09' E 121°47'0 0.0
2019-Oct-13 04:00N 25°09' E 121°47'0 0.0
2019-Oct-13 03:30N 25°09' E 121°47'0 0.0
2019-Oct-13 03:00N 25°09' E 121°47'0 0.0
2019-Oct-13 02:30N 25°09' E 121°47'0 0.0
2019-Oct-13 02:00N 25°09' E 121°47'0 0.0
2019-Oct-13 01:30N 25°09' E 121°47'0 0.0
2019-Oct-13 01:00N 25°09' E 121°47'0 0.0
2019-Oct-13 00:30N 25°09' E 121°47'0 0.0
2019-Oct-13 00:00N 25°09' E 121°47'0 0.0
2019-Oct-12 23:30N 25°09' E 121°47'0 0.0
2019-Oct-12 23:00N 25°09' E 121°47'0 0.0
2019-Oct-12 22:30N 25°09' E 121°47'0 0.0
2019-Oct-12 22:00N 25°09' E 121°47'0 0.0
2019-Oct-12 21:30N 25°09' E 121°47'0 0.0
2019-Oct-12 21:00N 25°09' E 121°47'0 0.0
2019-Oct-12 20:30N 25°09' E 121°47'0 0.0
2019-Oct-12 20:00N 25°09' E 121°47'0 0.0
2019-Oct-12 19:30N 25°09' E 121°47'0 0.0
2019-Oct-12 19:00N 25°09' E 121°47'0 0.0
2019-Oct-12 18:30N 25°09' E 121°47'0 0.0
2019-Oct-12 18:00N 25°09' E 121°47'0 0.0
2019-Oct-12 17:30N 25°09' E 121°47'0 0.0
2019-Oct-12 17:00N 25°09' E 121°47'0 0.0
2019-Oct-12 16:30N 25°09' E 121°47'0 0.0
2019-Oct-12 16:00N 25°09' E 121°47'0 0.0
2019-Oct-12 15:30N 25°09' E 121°47'0 0.0
2019-Oct-12 15:00N 25°09' E 121°47'0 0.0
2019-Oct-12 14:30N 25°09' E 121°47'0 0.0
2019-Oct-12 14:00N 25°09' E 121°47'0 0.0
2019-Oct-12 13:30N 25°09' E 121°47'0 0.0
2019-Oct-12 12:59N 25°09' E 121°47'0 0.0
2019-Oct-12 12:30N 25°09' E 121°47'0 0.0
2019-Oct-12 12:00N 25°09' E 121°47'0 0.0
2019-Oct-12 11:30N 25°09' E 121°47'0 0.0
2019-Oct-12 11:00N 25°09' E 121°47'0 0.0
2019-Oct-12 10:30N 25°09' E 121°47'0 0.0
2019-Oct-12 10:00N 25°09' E 121°47'0 0.0
2019-Oct-12 09:30N 25°09' E 121°47'0 0.0
2019-Oct-12 09:00N 25°09' E 121°47'0 0.0
2019-Oct-12 08:30N 25°09' E 121°47'0 0.0
2019-Oct-12 08:00N 25°09' E 121°47'0 0.0
2019-Oct-12 07:30N 25°09' E 121°47'0 0.0
2019-Oct-12 07:00N 25°09' E 121°47'0 0.0
2019-Oct-12 06:30N 25°09' E 121°47'0 0.0
2019-Oct-12 06:00N 25°09' E 121°47'0 0.0
2019-Oct-12 05:30N 25°09' E 121°47'0 0.0
2019-Oct-12 05:00N 25°09' E 121°47'0 0.0
2019-Oct-12 04:30N 25°09' E 121°47'0 0.0
2019-Oct-12 04:00N 25°09' E 121°47'0 0.0
2019-Oct-12 03:30N 25°09' E 121°47'0 0.0
2019-Oct-12 03:00N 25°09' E 121°47'0 0.0
2019-Oct-12 02:30N 25°09' E 121°47'0 0.0
2019-Oct-12 02:00N 25°09' E 121°47'0 0.0
2019-Oct-12 01:30N 25°09' E 121°47'0 0.0
2019-Oct-12 01:00N 25°09' E 121°47'0 0.0
2019-Oct-12 00:30N 25°09' E 121°47'0 0.0
2019-Oct-12 00:00N 25°09' E 121°47'0 0.0
2019-Oct-11 23:30N 25°09' E 121°47'0 0.0
2019-Oct-11 23:00N 25°09' E 121°47'0 0.0
2019-Oct-11 22:30N 25°09' E 121°47'0 0.0
2019-Oct-11 22:00N 25°09' E 121°47'0 0.0
2019-Oct-11 21:30N 25°09' E 121°47'0 0.0
2019-Oct-11 21:00N 25°09' E 121°47'0 0.0
2019-Oct-11 20:30N 25°09' E 121°47'0 0.0
2019-Oct-11 20:00N 25°09' E 121°47'0 0.0
2019-Oct-11 19:30N 25°09' E 121°47'0 0.0
2019-Oct-11 19:00N 25°09' E 121°47'0 0.0
2019-Oct-11 18:30N 25°09' E 121°47'0 0.0
2019-Oct-11 18:00N 25°09' E 121°47'0 0.0
2019-Oct-11 17:30N 25°09' E 121°47'0 0.0
2019-Oct-11 17:00N 25°09' E 121°47'0 0.0
2019-Oct-11 16:30N 25°09' E 121°47'0 0.0
2019-Oct-11 16:00N 25°09' E 121°47'0 0.0
2019-Oct-11 15:30N 25°09' E 121°47'0 0.0
2019-Oct-11 15:00N 25°09' E 121°47'0 0.0
2019-Oct-11 14:30N 25°09' E 121°47'0 0.0
2019-Oct-11 14:00N 25°09' E 121°47'0 0.0
2019-Oct-11 13:30N 25°09' E 121°47'0 0.0
2019-Oct-11 13:00N 25°09' E 121°47'0 0.0
2019-Oct-11 12:30N 25°09' E 121°47'0 0.0
2019-Oct-11 12:00N 25°09' E 121°47'0 0.0
2019-Oct-11 11:30N 25°09' E 121°47'0 0.0
2019-Oct-11 11:00N 25°09' E 121°47'0 0.0
2019-Oct-11 10:30N 25°09' E 121°47'0 0.0
2019-Oct-11 10:00N 25°09' E 121°47'0 0.0
2019-Oct-11 09:30N 25°09' E 121°47'0 0.0
2019-Oct-11 09:00N 25°09' E 121°47'0 0.0
2019-Oct-11 08:30N 25°09' E 121°47'0 0.0
2019-Oct-11 08:00N 25°09' E 121°47'0 0.0
2019-Oct-11 07:27N 25°09' E 121°47'0 0.0
2019-Oct-11 06:59N 25°09' E 121°47'0 0.0
2019-Oct-11 06:29N 25°09' E 121°47'0 0.0
2019-Oct-11 05:56N 25°09' E 121°47'0 0.0
2019-Oct-11 05:29N 25°09' E 121°47'0 0.0
2019-Oct-11 05:00N 25°09' E 121°47'0 0.0
2019-Oct-11 04:28N 25°09' E 121°47'0 0.0
2019-Oct-11 04:00N 25°09' E 121°47'0 0.0
2019-Oct-11 03:29N 25°09' E 121°47'0 0.0
2019-Oct-11 02:59N 25°09' E 121°47'0 0.0
2019-Oct-11 02:28N 25°09' E 121°47'0 0.0
2019-Oct-11 01:58N 25°09' E 121°47'0 0.0
2019-Oct-11 01:30N 25°09' E 121°47'0 0.0
2019-Oct-11 00:58N 25°09' E 121°47'0 0.0
2019-Oct-11 00:27N 25°09' E 121°47'0 0.0
2019-Oct-10 23:59N 25°09' E 121°47'0 0.0
2019-Oct-10 23:30N 25°09' E 121°47'0 0.0
2019-Oct-10 22:57N 25°09' E 121°47'0 0.0
2019-Oct-10 22:30N 25°09' E 121°47'0 0.0
2019-Oct-10 21:57N 25°09' E 121°47'0 0.0
2019-Oct-10 21:29N 25°09' E 121°47'0 0.0
2019-Oct-10 20:58N 25°09' E 121°47'0 0.0
2019-Oct-10 20:31N 25°09' E 121°47'0 0.0
2019-Oct-10 19:58N 25°09' E 121°47'0 0.0
2019-Oct-10 19:25N 25°09' E 121°47'0 0.0
2019-Oct-10 18:58N 25°09' E 121°47'0 0.0
2019-Oct-10 18:26N 25°09' E 121°47'0 0.0
2019-Oct-10 17:59N 25°09' E 121°47'0 0.0
2019-Oct-10 17:27N 25°09' E 121°47'0 0.0
2019-Oct-10 17:00N 25°09' E 121°47'0 0.0
2019-Oct-10 16:30N 25°09' E 121°47'0 0.0
2019-Oct-10 15:57N 25°09' E 121°47'0 0.0
2019-Oct-10 15:26N 25°09' E 121°47'0 0.0
2019-Oct-10 14:58N 25°09' E 121°47'0 0.0
2019-Oct-10 14:29N 25°09' E 121°47'0 0.0
2019-Oct-10 13:56N 25°09' E 121°47'0 0.0
2019-Oct-10 13:30N 25°09' E 121°47'0 0.0
2019-Oct-10 13:00N 25°09' E 121°47'0 0.0
2019-Oct-10 12:25N 25°09' E 121°47'0 0.0
2019-Oct-10 12:00N 25°09' E 121°47'0 0.0
2019-Oct-10 11:31N 25°09' E 121°47'0 0.0
2019-Oct-10 10:59N 25°09' E 121°47'0 0.0
2019-Oct-10 10:30N 25°09' E 121°47'0 0.0
2019-Oct-10 10:00N 25°09' E 121°47'0 0.0
2019-Oct-10 09:30N 25°09' E 121°47'0 0.0
2019-Oct-10 09:00N 25°09' E 121°47'0 0.0
2019-Oct-10 08:30N 25°09' E 121°47'0 0.0
2019-Oct-10 08:00N 25°09' E 121°47'0 0.0
2019-Oct-10 07:30N 25°09' E 121°47'0 0.0
2019-Oct-10 07:00N 25°09' E 121°47'0 0.0
2019-Oct-10 06:30N 25°09' E 121°47'0 0.0
2019-Oct-10 06:00N 25°09' E 121°47'0 0.0
2019-Oct-10 05:29N 25°09' E 121°47'0 0.0
2019-Oct-10 05:00N 25°09' E 121°47'0 0.0
2019-Oct-10 04:30N 25°09' E 121°47'0 0.0
2019-Oct-10 04:00N 25°09' E 121°47'0 0.0
2019-Oct-10 03:30N 25°09' E 121°47'0 0.0
2019-Oct-10 03:00N 25°09' E 121°47'0 0.0
2019-Oct-10 02:30N 25°09' E 121°47'0 0.0
2019-Oct-10 02:00N 25°09' E 121°47'0 0.0
2019-Oct-10 01:30N 25°09' E 121°47'0 0.0
2019-Oct-10 01:00N 25°09' E 121°47'0 0.0
2019-Oct-10 00:30N 25°09' E 121°47'0 0.0
2019-Oct-10 00:00N 25°09' E 121°47'0 0.0
2019-Oct-09 23:30N 25°09' E 121°47'0 0.0
2019-Oct-09 23:00N 25°09' E 121°47'0 0.0
2019-Oct-09 22:30N 25°09' E 121°47'0 0.0
2019-Oct-09 22:00N 25°09' E 121°47'0 0.0
2019-Oct-09 21:30N 25°09' E 121°47'0 0.0
2019-Oct-09 21:00N 25°09' E 121°47'0 0.0
2019-Oct-09 20:30N 25°09' E 121°47'0 0.0
2019-Oct-09 20:00N 25°09' E 121°47'0 0.0
2019-Oct-09 19:30N 25°09' E 121°47'0 0.0
2019-Oct-09 19:00N 25°09' E 121°47'0 0.0
2019-Oct-09 18:30N 25°09' E 121°47'0 0.0
2019-Oct-09 18:00N 25°09' E 121°47'0 0.0
2019-Oct-09 17:30N 25°09' E 121°47'0 0.0
2019-Oct-09 17:00N 25°09' E 121°47'0 0.0
2019-Oct-09 16:30N 25°09' E 121°47'0 0.0
2019-Oct-09 16:00N 25°09' E 121°47'0 0.0
2019-Oct-09 15:30N 25°09' E 121°47'0 0.0
2019-Oct-09 15:00N 25°09' E 121°47'0 0.0
2019-Oct-09 14:30N 25°09' E 121°47'0 0.0
2019-Oct-09 14:00N 25°09' E 121°47'0 0.0
2019-Oct-09 13:30N 25°09' E 121°47'0 0.0
2019-Oct-09 13:00N 25°09' E 121°47'0 0.0
2019-Oct-09 12:30N 25°09' E 121°47'0 0.0
2019-Oct-09 12:00N 25°09' E 121°47'0 0.0
2019-Oct-09 11:30N 25°09' E 121°47'0 0.0
2019-Oct-09 11:00N 25°09' E 121°47'0 0.0
2019-Oct-09 10:30N 25°09' E 121°47'0 0.0
2019-Oct-09 10:00N 25°09' E 121°47'0 0.0
2019-Oct-09 09:30N 25°09' E 121°47'0 0.0
2019-Oct-09 09:00N 25°09' E 121°47'0 0.0
2019-Oct-09 08:30N 25°09' E 121°47'0 0.0
2019-Oct-09 08:00N 25°09' E 121°47'0 0.0
2019-Oct-09 07:30N 25°09' E 121°47'0 0.0
2019-Oct-09 07:00N 25°09' E 121°47'0 0.0
2019-Oct-09 06:30N 25°09' E 121°47'0 0.0
2019-Oct-09 06:00N 25°09' E 121°47'0 0.0
2019-Oct-09 05:30N 25°09' E 121°47'0 0.0
2019-Oct-09 05:00N 25°09' E 121°47'0 0.0
2019-Oct-09 04:30N 25°09' E 121°47'0 0.0
2019-Oct-09 04:00N 25°09' E 121°47'0 0.0
2019-Oct-09 03:30N 25°09' E 121°47'0 0.0
2019-Oct-09 03:00N 25°09' E 121°47'0 0.0
2019-Oct-09 02:30N 25°09' E 121°47'0 0.0
2019-Oct-09 02:00N 25°09' E 121°47'0 0.0
2019-Oct-09 01:30N 25°09' E 121°47'0 0.0
2019-Oct-09 01:00N 25°09' E 121°47'0 0.0
2019-Oct-09 00:30N 25°09' E 121°47'0 0.0
2019-Oct-09 00:00N 25°09' E 121°47'0 0.0
2019-Oct-08 23:30N 25°09' E 121°47'0 0.0
2019-Oct-08 23:00N 25°09' E 121°47'0 0.0
2019-Oct-08 22:30N 25°09' E 121°47'0 0.0
2019-Oct-08 22:00N 25°09' E 121°47'0 0.0
2019-Oct-08 21:30N 25°09' E 121°47'0 0.0
2019-Oct-08 21:00N 25°09' E 121°47'0 0.0
2019-Oct-08 20:30N 25°09' E 121°47'0 0.0
2019-Oct-08 20:00N 25°09' E 121°47'0 0.0
2019-Oct-08 19:30N 25°09' E 121°47'0 0.0
2019-Oct-08 18:58N 25°09' E 121°47'0 0.0
2019-Oct-08 18:30N 25°09' E 121°47'0 0.0
2019-Oct-08 18:00N 25°09' E 121°47'0 0.0
2019-Oct-08 17:30N 25°09' E 121°47'0 0.0
2019-Oct-08 16:57N 25°09' E 121°47'0 0.0
2019-Oct-08 16:30N 25°09' E 121°47'0 0.0
2019-Oct-08 16:00N 25°09' E 121°47'0 0.0
2019-Oct-08 15:31N 25°09' E 121°47'0 0.0
2019-Oct-08 15:00N 25°09' E 121°47'0 0.0
2019-Oct-08 14:30N 25°09' E 121°47'0 0.0
2019-Oct-08 14:00N 25°09' E 121°47'0 0.0
2019-Oct-08 13:30N 25°09' E 121°47'0 0.0
2019-Oct-08 13:00N 25°09' E 121°47'0 0.0
2019-Oct-08 12:30N 25°09' E 121°47'0 0.0
2019-Oct-08 12:00N 25°09' E 121°47'0 0.0
2019-Oct-08 11:30N 25°09' E 121°47'0 0.0
2019-Oct-08 11:00N 25°09' E 121°47'0 0.0
2019-Oct-08 10:30N 25°09' E 121°47'1 2.8
2019-Oct-08 10:00N 25°10' E 121°47'5 9.2
2019-Oct-08 09:30N 25°14' E 121°43'5 8.5
2019-Oct-08 08:57N 25°17' E 121°39'4 7.4
2019-Oct-08 08:26N 25°19' E 121°36'5 6.7
2019-Oct-08 07:41N 25°20' E 121°30'3 6.8
2019-Oct-08 07:12N 25°19' E 121°27'1 7.6
2019-Oct-08 07:00N 25°18' E 121°26'3 6.2
2019-Oct-08 06:30N 25°16' E 121°24'2 5.0
2019-Oct-08 06:00N 25°13' E 121°23'1 1.4
2019-Oct-08 05:30N 25°13' E 121°23'1 1.1
2019-Oct-08 05:00N 25°13' E 121°23'1 1.3
2019-Oct-08 04:29N 25°13' E 121°22'1 1.3
2019-Oct-08 04:01N 25°13' E 121°22'1 1.1
2019-Oct-08 03:30N 25°13' E 121°23'1 1.3
2019-Oct-08 03:00N 25°12' E 121°23'1 2.1
2019-Oct-08 02:30N 25°11' E 121°23'1 1.6
2019-Oct-08 02:00N 25°12' E 121°22'1 2.6
2019-Oct-08 01:30N 25°13' E 121°21'1 1.3
2019-Oct-08 01:01N 25°12' E 121°21'1 1.8
2019-Oct-08 00:30N 25°11' E 121°22'1 1.7
2019-Oct-08 00:00N 25°11' E 121°22'1 1.3
2019-Oct-07 23:30N 25°10' E 121°22'2 4.3
2019-Oct-07 23:00N 25°09' E 121°20'0 0.8
2019-Oct-07 22:30N 25°09' E 121°20'1 1.6
2019-Oct-07 21:49N 25°09' E 121°21'1 1.1
2019-Oct-07 21:01N 25°10' E 121°21'3 1.4
2019-Oct-07 18:54N 25°13' E 121°22'1 1.3
2019-Oct-07 18:00N 25°13' E 121°24'4 8.9
2019-Oct-07 17:30N 25°17' E 121°24'4 8.8
2019-Oct-07 17:00N 25°20' E 121°27'5 9.0
2019-Oct-07 16:24N 25°20' E 121°33'4 8.4
2019-Oct-07 15:57N 25°19' E 121°37'4 9.1
2019-Oct-07 15:29N 25°16' E 121°41'4 8.5
2019-Oct-07 15:00N 25°13' E 121°44'  

Dump ship's entire track history